Terminal Aerodrome Forecast
Issued by NWS

Home | Current Version | Previous Version | Text Only | Print | Product List | Glossary On
Versions: 1 2 3 4 5 6 7 8 9 10 11 12 13 14 15 16 17 18 19 20
000
FTUS43 KPAH 181120
TAFCGI
TAF
KCGI 181120Z 1812/1912 00000KT 3SM BR SCT001 BKN250
      TEMPO 1812/1813 1/4SM FG VV001
     FM181400 12005KT P6SM SCT080 BKN250
     FM190000 VRB04KT P6SM SCT020 OVC040
     FM190600 03007KT 3SM -SHRA BR OVC020=

USA.gov is the U.S. government's official web portal to all federal, state and local government web resources and services.